Time;durP1;ratioP1;P1;durP2;ratioP2;P2;SDS_P1;SDS_P2;PMS_P1;PMS_P2;Temp;Humidity;BMP_temperature;BMP_pressure;BME280_temperature;BME280_humidity;BME280_pressure;Samples;Min_cycle;Max_cycle;Signal;HPM_P1;HPM_P2
2022/11/15 00:00:57;;;;;;;16.93;14.97;;;10.80;77.70;;;13.40;57.61;100952.72;5081196;28;20262;-59
2022/11/15 00:03:28;;;;;;;16.90;14.93;;;10.80;77.80;;;13.39;57.69;100951.06;5072751;28;20200;-59
2022/11/15 00:06:01;;;;;;;17.30;15.53;;;10.80;77.90;;;13.36;57.78;100956.72;5080084;28;20192;-59
2022/11/15 00:08:30;;;;;;;19.77;16.40;;;10.80;78.00;;;13.36;57.77;100956.72;5093264;28;20177;-59
2022/11/15 00:10:59;;;;;;;17.63;14.27;;;10.70;78.00;;;13.32;57.88;100941.44;5108440;28;20189;-60
2022/11/15 00:13:26;;;;;;;17.43;15.43;;;10.70;78.10;;;13.23;58.34;100940.75;5096859;28;20681;-58
2022/11/15 00:15:58;;;;;;;16.77;14.90;;;10.70;78.50;;;13.16;58.69;100945.13;5104779;28;20221;-56
2022/11/15 00:18:26;;;;;;;17.23;14.43;;;10.70;78.60;;;13.14;58.66;100946.31;5096830;28;20258;-57
2022/11/15 00:20:53;;;;;;;16.97;14.10;;;10.70;78.70;;;13.10;58.93;100940.56;5096534;28;20531;-57
2022/11/15 00:23:20;;;;;;;16.03;13.87;;;10.60;78.70;;;13.05;59.12;100942.91;5097559;28;20325;-57
2022/11/15 00:25:47;;;;;;;17.87;14.53;;;10.60;78.80;;;13.00;59.34;100945.31;5095961;28;20184;-60
2022/11/15 00:28:14;;;;;;;17.00;15.27;;;10.60;79.00;;;12.95;59.48;100947.69;5097138;28;20543;-58
2022/11/15 00:30:41;;;;;;;17.73;14.60;;;10.60;79.20;;;12.93;59.57;100960.28;5096428;28;20189;-58
2022/11/15 00:33:10;;;;;;;17.10;14.30;;;10.50;79.20;;;12.89;59.62;100951.88;5095536;28;20207;-57
2022/11/15 00:35:37;;;;;;;17.10;14.13;;;10.60;79.40;;;12.95;59.56;100949.50;5091820;28;20190;-59
2022/11/15 00:38:04;;;;;;;16.23;13.73;;;10.60;79.30;;;12.98;59.49;100952.59;5076755;28;20197;-58
2022/11/15 00:40:30;;;;;;;17.27;13.37;;;10.50;79.20;;;13.00;59.31;100945.31;5076505;28;20189;-60
2022/11/15 00:42:58;;;;;;;16.30;13.77;;;10.60;79.20;;;13.06;58.79;100955.16;5077306;28;20205;-58
2022/11/15 00:45:26;;;;;;;17.17;14.13;;;10.60;79.30;;;13.08;59.15;100953.16;5079865;28;20197;-58
2022/11/15 00:47:53;;;;;;;15.30;13.70;;;10.60;79.20;;;13.09;59.21;100957.44;5097553;28;20276;-59
2022/11/15 00:50:21;;;;;;;16.13;13.87;;;10.60;79.20;;;13.13;58.99;100958.72;5098493;28;20201;-60
2022/11/15 00:52:48;;;;;;;16.03;13.47;;;10.60;79.20;;;13.16;58.84;100957.53;5075711;28;20242;-58
2022/11/15 00:55:17;;;;;;;15.40;12.27;;;10.60;79.10;;;13.20;58.61;100956.97;5076062;28;20209;-60
2022/11/15 00:57:45;;;;;;;15.20;13.60;;;10.60;79.00;;;13.20;58.60;100951.66;5096352;28;20680;-59
2022/11/15 01:00:13;;;;;;;14.70;12.73;;;10.60;79.00;;;13.19;58.71;100950.03;5096132;28;20189;-58
2022/11/15 01:02:40;;;;;;;16.80;13.20;;;10.60;79.00;;;13.20;58.65;100951.66;5095387;28;20208;-58
2022/11/15 01:05:08;;;;;;;15.20;13.00;;;10.60;78.90;;;13.23;58.52;100945.19;5094292;28;20192;-59
2022/11/15 01:07:36;;;;;;;16.10;13.53;;;10.60;78.90;;;13.24;58.45;100949.50;5076055;28;20200;-59
2022/11/15 01:10:04;;;;;;;14.83;12.10;;;10.60;78.90;;;13.25;58.39;100948.47;5075501;28;20596;-58
2022/11/15 01:12:32;;;;;;;15.30;13.67;;;10.60;78.80;;;13.22;58.35;100949.66;5090247;28;20282;-57
2022/11/15 01:14:59;;;;;;;14.10;12.60;;;10.60;78.90;;;13.21;58.50;100941.94;5083376;28;20217;-59
2022/11/15 01:17:26;;;;;;;15.63;13.57;;;10.60;78.80;;;13.20;58.28;100943.75;5094783;28;20196;-59
2022/11/15 01:19:53;;;;;;;15.80;12.83;;;10.60;78.80;;;13.21;58.45;100944.56;5095776;28;20257;-60
2022/11/15 01:22:21;;;;;;;16.37;13.10;;;10.60;78.80;;;13.20;58.18;100941.09;5087278;28;20224;-58
2022/11/15 01:24:50;;;;;;;13.67;12.00;;;10.60;78.80;;;13.22;58.25;100944.38;5075056;28;20193;-57
2022/11/15 01:27:18;;;;;;;16.43;12.57;;;10.60;78.80;;;13.23;58.22;100946.03;5092316;28;20208;-58
2022/11/15 01:29:45;;;;;;;14.77;11.70;;;10.60;78.90;;;13.24;58.13;100942.34;5095618;28;20185;-57
2022/11/15 01:32:11;;;;;;;16.07;13.10;;;10.50;78.70;;;13.17;58.05;100938.03;5094827;28;20204;-59
2022/11/15 01:34:39;;;;;;;14.37;12.10;;;10.60;78.70;;;13.17;58.16;100930.09;5095551;28;20239;-57
2022/11/15 01:37:06;;;;;;;16.00;13.03;;;10.50;78.70;;;13.13;58.46;100929.63;5079559;28;20193;-58
2022/11/15 01:39:33;;;;;;;12.50;10.93;;;10.50;78.70;;;13.14;58.21;100926.00;5076088;28;20193;-60
2022/11/15 01:42:02;;;;;;;16.30;12.47;;;10.50;78.70;;;13.16;58.27;100928.44;5074598;28;20224;-59
2022/11/15 01:44:43;;;;;;;14.33;12.73;;;10.50;78.70;;;13.12;57.99;100920.06;5074930;28;20189;-59
2022/11/15 01:47:17;;;;;;;13.97;11.97;;;10.50;78.60;;;13.10;57.92;100911.50;5090658;28;20242;-59
2022/11/15 01:49:55;;;;;;;15.50;13.30;;;10.50;78.50;;;13.10;58.01;100902.78;5095576;28;20207;-59
2022/11/15 01:52:28;;;;;;;16.37;12.97;;;10.50;78.50;;;13.08;58.03;100904.75;5094654;28;20204;-59
2022/11/15 01:55:05;;;;;;;15.37;13.57;;;10.40;78.50;;;13.01;58.07;100909.94;5087758;28;20270;-59
2022/11/15 01:57:34;;;;;;;15.73;13.17;;;10.40;78.60;;;12.90;58.30;100908.63;5092602;28;20193;-58
2022/11/15 02:00:05;;;;;;;14.97;12.97;;;10.40;78.70;;;12.88;58.52;100904.53;5095249;28;20242;-57
2022/11/15 02:02:35;;;;;;;16.33;13.20;;;10.30;78.70;;;12.85;58.74;100891.69;5094937;28;20200;-57
2022/11/15 02:05:03;;;;;;;16.50;13.83;;;10.30;78.90;;;12.82;58.67;100894.69;5095076;28;20178;-57
2022/11/15 02:07:33;;;;;;;14.60;12.27;;;10.20;79.20;;;12.81;58.71;100893.06;5076076;28;20189;-60
2022/11/15 02:10:08;;;;;;;14.57;13.03;;;10.20;79.30;;;12.82;58.95;100892.03;5075314;28;20232;-57
2022/11/15 02:12:37;;;;;;;16.30;12.70;;;10.20;79.40;;;12.86;58.76;100890.66;5089335;28;20231;-59
2022/11/15 02:15:06;;;;;;;16.83;13.13;;;10.20;79.50;;;12.87;58.89;100881.75;5104446;28;20204;-59
2022/11/15 02:18:07;;;;;;;15.83;13.33;;;10.30;79.70;;;12.91;58.81;100896.22;5095409;28;20196;-59
2022/11/15 02:21:11;;;;;;;14.00;12.40;;;10.30;79.70;;;12.93;58.88;100890.75;5094029;28;20197;-57
2022/11/15 02:24:30;;;;;;;16.30;12.90;;;10.30;79.60;;;12.99;58.80;100884.72;5093836;28;20192;-58
2022/11/15 02:27:56;;;;;;;15.33;12.33;;;10.30;79.50;;;13.08;58.63;100883.63;5081166;28;20262;-59
2022/11/15 02:30:39;;;;;;;12.80;11.40;;;10.40;79.50;;;13.21;58.27;100884.59;5072858;28;20255;-59
2022/11/15 02:33:22;;;;;;;14.83;12.83;;;10.50;79.50;;;13.26;57.88;100871.66;5073861;28;20180;-57
2022/11/15 02:35:59;;;;;;;14.23;11.83;;;10.50;79.20;;;13.30;58.02;100872.91;5076755;28;20546;-57
2022/11/15 02:38:39;;;;;;;13.73;12.00;;;10.50;78.90;;;13.36;58.01;100872.13;5081711;28;20192;-58
2022/11/15 02:41:14;;;;;;;16.00;12.70;;;10.60;78.80;;;13.42;57.56;100870.56;5074347;28;20208;-57
2022/11/15 02:43:58;;;;;;;13.93;11.93;;;10.70;78.70;;;13.48;57.52;100867.97;5074270;28;20192;-58
2022/11/15 02:49:24;;;;;;;13.47;11.03;;;10.70;78.50;;;13.55;57.41;100879.41;5093706;28;20241;-59
2022/11/15 02:51:55;;;;;;;15.67;12.80;;;10.80;78.60;;;13.61;57.20;100874.38;5093753;28;20223;-57
2022/11/15 02:54:26;;;;;;;14.60;12.57;;;10.80;78.50;;;13.63;57.36;100862.59;5092147;28;20208;-57
2022/11/15 02:56:58;;;;;;;14.43;12.33;;;10.90;79.30;;;13.69;57.29;100866.31;5082228;28;20207;-57
2022/11/15 03:00:03;;;;;;;15.90;13.17;;;10.90;78.60;;;13.67;57.47;100861.19;5073527;28;20227;-59
2022/11/15 03:03:08;;;;;;;14.50;12.17;;;10.90;78.60;;;13.72;57.51;100865.91;5073517;28;20212;-56
2022/11/15 03:05:44;;;;;;;15.40;13.07;;;10.90;78.60;;;13.76;57.63;100864.53;5073779;28;20193;-57
2022/11/15 03:08:22;;;;;;;12.97;11.57;;;11.00;78.70;;;13.81;57.54;100870.09;5093671;28;20204;-59
2022/11/15 03:11:06;;;;;;;14.57;12.80;;;11.00;78.70;;;13.82;57.70;100869.06;5092423;28;20184;-57
2022/11/15 03:13:43;;;;;;;14.80;12.60;;;11.10;78.90;;;13.89;57.70;100865.44;5093808;28;20631;-60
2022/11/15 03:16:18;;;;;;;13.47;12.00;;;11.10;79.10;;;13.93;57.44;100863.25;5107217;28;20216;-59
2022/11/15 03:18:55;;;;;;;15.03;11.53;;;11.20;79.20;;;14.00;57.23;100864.13;5093303;28;20188;-58
2022/11/15 03:21:24;;;;;;;14.90;13.40;;;11.20;79.30;;;14.04;57.91;100857.41;5093138;28;20212;-56
2022/11/15 03:23:55;;;;;;;15.27;12.47;;;11.20;79.30;;;14.09;57.72;100847.88;5093792;28;20200;-62
2022/11/15 03:26:25;;;;;;;14.00;11.60;;;11.30;79.40;;;14.15;57.62;100856.88;5087434;28;20189;-58
2022/11/15 03:28:58;;;;;;;14.40;10.73;;;11.30;79.40;;;14.23;57.47;100864.66;5073303;28;20223;-59
2022/11/15 03:31:47;;;;;;;12.13;10.87;;;11.30;79.40;;;14.31;57.33;100861.88;5072878;28;20212;-60
2022/11/15 03:34:29;;;;;;;16.40;13.40;;;11.40;79.50;;;14.37;57.36;100855.81;5072807;28;20216;-57
2022/11/15 03:36:56;;;;;;;13.90;11.73;;;11.40;80.10;;;14.44;57.19;100843.41;5083835;28;20189;-56
2022/11/15 03:39:25;;;;;;;15.53;12.97;;;11.50;79.30;;;14.47;57.18;100850.97;5093501;28;20212;-58
2022/11/15 03:42:12;;;;;;;15.83;11.87;;;11.60;79.30;;;14.47;57.15;100844.84;5092176;28;20673;-58
2022/11/15 03:44:47;;;;;;;13.90;12.13;;;11.60;79.20;;;14.49;57.23;100843.63;5079911;28;20185;-57
2022/11/15 03:47:23;;;;;;;17.10;11.47;;;11.60;79.10;;;14.51;57.29;100831.00;5085505;28;20193;-59
2022/11/15 03:49:59;;;;;;;13.83;11.43;;;11.60;79.10;;;14.52;57.21;100835.31;5077084;28;20548;-57
2022/11/15 03:52:30;;;;;;;12.97;11.23;;;11.70;79.30;;;14.54;57.41;100841.22;5076573;28;20209;-59
2022/11/15 03:55:01;;;;;;;15.03;12.57;;;11.70;79.20;;;14.56;57.13;100849.78;5076607;28;20206;-59
2022/11/15 03:57:28;;;;;;;17.67;12.57;;;11.70;79.30;;;14.56;57.14;100835.72;5089976;28;20200;-57
2022/11/15 03:59:55;;;;;;;14.03;11.77;;;11.70;79.20;;;14.53;57.55;100828.97;5096835;28;20185;-59
2022/11/15 04:02:22;;;;;;;15.03;12.60;;;11.70;79.10;;;14.52;57.53;100839.78;5096595;28;20257;-59
2022/11/15 04:04:51;;;;;;;15.00;12.37;;;11.70;79.10;;;14.53;57.61;100839.56;5096887;28;20189;-58
2022/11/15 04:07:18;;;;;;;14.47;12.63;;;11.70;79.20;;;14.50;57.53;100834.66;5096671;28;20593;-60
2022/11/15 04:10:03;;;;;;;14.37;12.23;;;11.70;79.20;;;14.49;57.88;100832.22;5097077;28;20651;-59
2022/11/15 04:12:31;;;;;;;15.60;11.57;;;11.80;79.30;;;14.49;57.84;100832.22;5075899;28;20602;-57
2022/11/15 04:15:09;;;;;;;16.77;12.70;;;11.80;79.30;;;14.51;57.81;100832.84;5095334;28;20729;-58
2022/11/15 04:17:39;;;;;;;14.67;11.93;;;11.80;79.30;;;14.50;57.69;100826.72;5101844;27;20667;-59
2022/11/15 04:25:49;;;;;;;15.30;11.23;;;11.80;79.30;;;14.49;58.04;100826.94;5080406;28;20243;-58
2022/11/15 04:28:16;;;;;;;13.50;11.13;;;11.80;79.40;;;14.50;57.88;100831.22;5095579;28;20215;-57
2022/11/15 04:30:43;;;;;;;14.17;10.93;;;11.80;79.40;;;14.53;58.12;100828.97;5096243;28;20192;-58
2022/11/15 04:33:10;;;;;;;13.17;10.80;;;11.80;79.40;;;14.54;58.12;100835.91;5096438;28;20649;-57
2022/11/15 04:35:38;;;;;;;11.80;9.90;;;11.80;79.50;;;14.54;58.07;100835.91;5096251;28;20618;-57
2022/11/15 04:38:09;;;;;;;13.67;11.13;;;11.80;79.60;;;14.54;58.19;100835.09;5079797;28;20197;-58
2022/11/15 04:40:38;;;;;;;12.57;10.57;;;11.80;79.70;;;14.60;57.96;100840.41;5095949;28;20193;-58
2022/11/15 04:43:05;;;;;;;11.40;10.27;;;11.90;79.80;;;14.64;58.24;100843.50;5096796;28;20193;-59
2022/11/15 04:45:32;;;;;;;15.20;10.77;;;11.90;79.80;;;14.66;58.08;100847.59;5096036;28;20268;-58
2022/11/15 04:47:59;;;;;;;11.37;10.27;;;11.90;79.80;;;14.73;57.89;100847.59;5079589;28;20201;-58
2022/11/15 04:50:26;;;;;;;13.23;10.53;;;12.00;80.00;;;14.76;57.79;100837.41;5076130;28;20190;-60
2022/11/15 04:52:54;;;;;;;12.07;10.73;;;12.00;79.90;;;14.80;58.11;100836.00;5083687;28;20679;-59
2022/11/15 04:55:21;;;;;;;11.13;9.50;;;12.00;79.80;;;14.83;57.88;100840.09;5095659;28;20260;-59
2022/11/15 04:57:58;;;;;;;11.90;9.80;;;12.00;79.80;;;14.86;57.80;100835.22;5080221;28;20205;-58
2022/11/15 05:00:27;;;;;;;13.00;10.03;;;12.10;80.00;;;14.93;57.77;100834.41;5079594;28;20203;-61
2022/11/15 05:05:41;;;;;;;17.63;9.87;;;12.10;79.80;;;14.96;57.85;100832.16;5095656;28;20188;-59
2022/11/15 05:08:10;;;;;;;11.13;10.03;;;12.10;79.70;;;14.99;57.67;100833.59;5077325;28;20302;-59
2022/11/15 05:10:37;;;;;;;11.57;10.37;;;12.20;79.70;;;15.01;57.45;100834.22;5075355;28;20238;-59
2022/11/15 05:13:03;;;;;;;13.17;10.73;;;12.20;79.70;;;15.02;57.77;100844.63;5075232;28;20259;-59
2022/11/15 05:15:30;;;;;;;12.17;9.77;;;12.20;79.70;;;15.05;57.80;100846.06;5102670;28;20268;-60
2022/11/15 05:17:59;;;;;;;14.93;10.87;;;12.20;79.70;;;15.06;57.57;100831.78;5098827;28;20200;-60
2022/11/15 05:20:26;;;;;;;11.70;10.07;;;12.30;79.80;;;15.08;57.44;100833.22;5093946;28;20188;-58
2022/11/15 05:22:55;;;;;;;11.03;8.83;;;12.30;79.70;;;15.10;57.40;100835.66;5095195;28;20606;-59
2022/11/15 05:25:24;;;;;;;10.87;9.77;;;12.30;79.70;;;15.13;57.41;100835.25;5095060;28;20200;-60
2022/11/15 05:27:51;;;;;;;12.27;9.43;;;12.30;79.80;;;15.10;57.78;100835.66;5080446;28;20549;-57
2022/11/15 05:30:18;;;;;;;10.83;9.73;;;12.30;79.70;;;15.06;58.17;100834.44;5090450;28;20255;-59
2022/11/15 05:32:45;;;;;;;12.07;10.37;;;12.30;79.70;;;15.05;58.00;100832.81;5075506;28;20213;-59
2022/11/15 05:35:19;;;;;;;10.43;9.40;;;12.30;79.70;;;15.05;58.00;100840.78;5085007;28;20216;-58
2022/11/15 05:37:48;;;;;;;10.87;9.77;;;12.30;79.80;;;15.06;57.80;100826.47;5080875;28;20551;-57
2022/11/15 05:40:15;;;;;;;10.03;8.80;;;12.30;80.00;;;15.09;58.08;100823.44;5075087;28;20193;-59
2022/11/15 05:42:45;;;;;;;12.57;10.07;;;12.40;80.10;;;15.08;58.12;100819.13;5074227;28;20201;-59
2022/11/15 05:45:12;;;;;;;10.03;9.03;;;12.30;80.10;;;15.06;58.24;100823.84;5074409;28;20193;-58
2022/11/15 05:47:41;;;;;;;11.63;10.17;;;12.40;80.30;;;15.04;58.59;100832.00;5086903;28;20199;-60
2022/11/15 05:50:12;;;;;;;12.43;10.23;;;12.40;81.20;;;15.05;58.37;100833.63;5076238;28;20319;-60
2022/11/15 05:52:39;;;;;;;12.90;10.17;;;12.40;80.40;;;15.10;58.40;100819.75;5074531;28;20205;-58
2022/11/15 05:55:08;;;;;;;10.17;8.70;;;12.40;80.50;;;15.13;58.39;100824.66;5074934;28;20208;-59
2022/11/15 05:57:36;;;;;;;11.67;9.53;;;12.40;80.50;;;15.15;58.69;100817.31;5088867;28;20193;-59
2022/11/15 06:00:07;;;;;;;13.47;8.87;;;12.40;80.50;;;15.14;58.51;100819.13;5074433;28;20193;-61
2022/11/15 06:02:35;;;;;;;9.77;8.73;;;12.40;80.50;;;15.21;58.39;100827.13;5074423;28;20209;-59
2022/11/15 06:05:03;;;;;;;11.70;9.53;;;12.50;80.60;;;15.23;58.45;100831.22;5074588;28;20627;-57
2022/11/15 06:07:40;;;;;;;9.87;8.87;;;12.50;80.70;;;15.24;58.33;100830.19;5093126;28;20600;-59
2022/11/15 06:10:08;;;;;;;10.90;9.23;;;12.50;80.80;;;15.30;58.31;100831.22;5074273;28;20204;-60
2022/11/15 06:12:35;;;;;;;11.57;9.60;;;12.50;80.80;;;15.33;58.55;100825.50;5073707;28;20205;-58
2022/11/15 06:15:05;;;;;;;11.93;9.13;;;12.50;80.80;;;15.35;58.41;100834.06;5094066;28;20204;-60
2022/11/15 06:17:32;;;;;;;12.50;10.00;;;12.50;80.80;;;15.37;58.85;100832.03;5089651;28;20242;-60
2022/11/15 06:19:59;;;;;;;11.70;9.00;;;12.60;80.90;;;15.38;58.53;100838.97;5087735;28;20197;-62
2022/11/15 06:22:26;;;;;;;11.30;9.20;;;12.60;80.90;;;15.42;58.42;100834.91;5094276;28;20204;-60
2022/11/15 06:24:53;;;;;;;9.87;8.87;;;12.60;80.90;;;15.44;58.53;100832.84;5094445;28;20197;-58
2022/11/15 06:27:20;;;;;;;9.53;8.53;;;12.70;81.00;;;15.48;58.38;100844.72;5085041;28;20197;-60
2022/11/15 06:29:47;;;;;;;10.03;8.83;;;12.70;81.00;;;15.49;58.63;100844.53;5074390;28;20557;-61
2022/11/15 06:32:15;;;;;;;10.70;9.57;;;12.70;81.00;;;15.48;58.42;100839.41;5092755;28;20569;-59
2022/11/15 06:34:42;;;;;;;9.97;8.97;;;12.70;81.10;;;15.46;58.59;100846.75;5094259;28;20249;-60
2022/11/15 06:37:09;;;;;;;11.97;10.23;;;12.70;81.00;;;15.44;58.82;100844.31;5094383;28;20212;-59
2022/11/15 06:39:36;;;;;;;13.13;9.83;;;12.70;81.90;;;15.47;58.58;100845.75;5095423;28;20214;-61
2022/11/15 06:42:04;;;;;;;11.43;10.13;;;12.70;81.10;;;15.50;58.65;100842.66;5094698;28;20212;-58
2022/11/15 06:44:31;;;;;;;10.27;9.27;;;12.80;81.30;;;15.50;58.63;100848.78;5095024;28;20193;-60
2022/11/15 06:46:58;;;;;;;10.50;9.43;;;12.80;81.40;;;15.52;58.73;100848.59;5089323;28;20202;-61
2022/11/15 06:49:26;;;;;;;10.60;8.27;;;12.80;81.40;;;15.57;58.85;100848.78;5074858;28;20220;-59
2022/11/15 06:51:53;;;;;;;12.83;9.03;;;12.80;81.40;;;15.64;58.66;100849.63;5074830;28;20565;-61
2022/11/15 06:54:20;;;;;;;13.07;9.53;;;12.80;81.50;;;15.68;58.82;100847.38;5091355;28;20269;-60
2022/11/15 06:56:48;;;;;;;12.33;9.57;;;12.80;81.50;;;15.67;58.94;100838.59;5094570;28;20629;-60
2022/11/15 06:59:15;;;;;;;13.47;9.73;;;12.80;81.40;;;15.67;58.67;100846.53;5083667;28;20202;-60
2022/11/15 07:01:42;;;;;;;16.03;10.20;;;12.90;81.60;;;15.68;58.83;100853.50;5073823;28;20220;-59
2022/11/15 07:04:09;;;;;;;11.17;7.97;;;12.90;81.70;;;15.72;58.83;100852.06;5074117;28;20642;-60
2022/11/15 07:06:37;;;;;;;14.13;8.83;;;12.90;81.60;;;15.77;58.69;100854.91;5091361;28;20681;-60
2022/11/15 07:09:04;;;;;;;13.60;9.67;;;12.90;81.70;;;15.82;58.63;100851.66;5095552;28;20688;-59
2022/11/15 07:11:33;;;;;;;10.83;9.73;;;12.90;81.80;;;15.83;58.56;100854.09;5081376;28;20576;-58
2022/11/15 07:14:01;;;;;;;11.40;9.70;;;13.00;81.90;;;15.84;58.70;100855.72;5092398;28;20295;-58
2022/11/15 07:16:28;;;;;;;13.37;9.37;;;13.00;81.90;;;15.85;58.82;100852.06;5113002;28;20283;-59
2022/11/15 07:18:55;;;;;;;14.30;10.07;;;13.00;82.00;;;15.88;58.73;100861.44;5110829;28;20218;-59
2022/11/15 07:21:22;;;;;;;11.90;9.93;;;13.00;81.90;;;15.88;58.95;100861.44;5093792;28;20232;-59
2022/11/15 07:23:56;;;;;;;13.73;9.23;;;13.00;81.90;;;15.89;58.61;100858.59;5101876;28;20187;-60
2022/11/15 07:26:23;;;;;;;13.27;9.93;;;13.10;82.00;;;15.89;59.28;100858.59;5098435;28;20637;-60
2022/11/15 07:28:50;;;;;;;12.37;9.43;;;13.10;82.00;;;15.89;58.96;100857.75;5094591;28;20270;-57
2022/11/15 07:31:18;;;;;;;10.47;9.30;;;13.10;82.00;;;15.89;59.27;100855.94;5093923;28;20285;-57
2022/11/15 07:33:45;;;;;;;13.10;9.63;;;13.10;82.10;;;15.88;59.34;100856.94;5093545;28;20192;-58
2022/11/15 07:36:12;;;;;;;12.00;10.30;;;13.10;82.30;;;15.88;59.52;100856.94;5106335;28;20216;-60
2022/11/15 07:38:39;;;;;;;15.20;10.87;;;13.20;82.40;;;15.91;59.23;100848.56;5113023;28;20187;-59
2022/11/15 07:41:10;;;;;;;10.97;9.73;;;13.10;82.40;;;15.93;59.50;100858.97;5102965;28;20254;-59
2022/11/15 07:43:37;;;;;;;12.23;9.83;;;13.20;82.40;;;15.95;59.72;100851.66;5093968;28;20679;-60
2022/11/15 07:46:09;;;;;;;11.73;10.23;;;13.20;82.50;;;15.98;59.56;100856.53;5083798;28;20197;-62
2022/11/15 07:48:42;;;;;;;12.80;10.47;;;13.30;83.40;;;15.98;59.51;100851.22;5102404;28;20264;-60
2022/11/15 07:51:13;;;;;;;12.07;9.87;;;13.30;82.80;;;16.01;59.86;100848.16;5109352;28;20636;-61
2022/11/15 07:53:41;;;;;;;13.30;10.40;;;13.30;82.60;;;16.06;59.76;100849.16;5076588;28;20215;-59
2022/11/15 07:56:10;;;;;;;12.83;10.07;;;13.40;82.80;;;16.10;59.71;100845.06;5092794;28;20220;-59
2022/11/15 07:58:37;;;;;;;11.97;8.87;;;13.40;82.70;;;16.18;59.63;100850.16;5090693;28;20253;-60
2022/11/15 08:01:05;;;;;;;11.50;9.87;;;13.50;82.70;;;16.26;59.50;100849.09;5096281;28;20228;-59
2022/11/15 08:03:33;;;;;;;14.77;10.23;;;13.50;82.60;;;16.32;59.31;100845.63;5091973;28;20301;-61
2022/11/15 08:06:01;;;;;;;10.33;9.33;;;13.50;82.50;;;16.35;59.08;100847.06;5089243;28;20216;-60
2022/11/15 08:08:29;;;;;;;11.10;9.30;;;13.60;82.40;;;16.35;59.50;100855.03;5086328;28;20306;-60
2022/11/15 08:10:57;;;;;;;11.90;9.47;;;13.60;82.30;;;16.40;59.37;100858.69;5069684;28;20200;-59
2022/11/15 08:13:26;;;;;;;11.77;9.53;;;13.70;82.20;;;16.45;59.14;100858.06;5072003;28;20189;-59
2022/11/15 08:15:58;;;;;;;11.33;10.17;;;13.70;82.10;;;16.50;59.14;100861.69;5104712;28;20284;-59
2022/11/15 08:18:25;;;;;;;11.57;9.67;;;13.80;82.00;;;16.57;59.09;100857.22;5112205;28;20233;-61
2022/11/15 08:20:52;;;;;;;12.23;9.40;;;13.80;81.90;;;16.64;58.69;100847.34;5092605;28;20200;-59
2022/11/15 08:23:19;;;;;;;9.97;8.90;;;13.90;81.90;;;16.71;58.65;100850.00;5086026;28;20475;-58
2022/11/15 08:25:46;;;;;;;10.87;8.60;;;13.90;81.70;;;16.74;58.66;100849.56;5092367;28;20257;-59
2022/11/15 08:28:16;;;;;;;10.47;9.47;;;14.00;81.60;;;16.77;58.29;100847.31;5092329;28;20254;-57
2022/11/15 08:30:45;;;;;;;10.97;9.63;;;14.00;81.50;;;16.81;58.29;100851.16;5091557;28;20271;-58
2022/11/15 08:33:14;;;;;;;10.47;9.40;;;14.00;81.30;;;16.85;58.26;100859.56;5094825;28;20188;-60
2022/11/15 08:35:42;;;;;;;9.40;8.30;;;14.10;81.30;;;16.92;57.94;100858.47;5096549;28;20207;-59
2022/11/15 08:38:10;;;;;;;9.90;8.90;;;14.10;81.30;;;17.00;57.88;100857.41;5079053;28;20582;-60
2022/11/15 08:40:37;;;;;;;9.93;7.87;;;14.20;81.30;;;17.06;57.71;100864.56;5075602;28;20220;-60
2022/11/15 08:43:05;;;;;;;10.40;8.83;;;14.20;81.10;;;17.12;57.70;100861.03;5075857;28;20280;-59
2022/11/15 08:45:35;;;;;;;9.60;8.70;;;14.30;81.10;;;17.18;57.46;100864.69;5081546;28;20250;-59
2022/11/15 08:48:04;;;;;;;11.63;9.87;;;14.30;80.90;;;17.21;57.57;100865.06;5096375;28;20587;-61
2022/11/15 08:50:31;;;;;;;10.50;9.17;;;14.40;80.80;;;17.24;57.56;100864.63;5094623;28;20667;-58
2022/11/15 08:53:05;;;;;;;11.33;8.27;;;14.40;80.70;;;17.26;57.45;100853.75;5096521;28;20685;-60
2022/11/15 08:55:35;;;;;;;11.03;9.43;;;14.40;80.50;;;17.31;57.19;100848.63;5090595;28;20591;-58
2022/11/15 08:58:03;;;;;;;8.87;7.97;;;14.40;80.50;;;17.38;57.08;100860.84;5075800;28;20174;-61
2022/11/15 09:00:30;;;;;;;9.30;8.13;;;14.50;80.60;;;17.41;57.13;100855.09;5075513;28;20198;-59
2022/11/15 09:02:57;;;;;;;11.27;8.00;;;14.50;80.50;;;17.47;56.90;100856.88;5075581;28;20213;-59
2022/11/15 09:05:26;;;;;;;10.50;8.23;;;14.60;80.50;;;17.50;56.82;100858.28;5086455;28;20254;-59
2022/11/15 09:07:54;;;;;;;8.97;7.93;;;14.60;80.30;;;17.53;56.70;100863.22;5101585;28;20206;-57
2022/11/15 09:10:22;;;;;;;9.83;8.00;;;14.60;80.20;;;17.57;56.93;100856.44;5105896;28;20200;-60
2022/11/15 09:12:49;;;;;;;11.90;9.17;;;14.70;80.10;;;17.50;56.56;100859.13;5096469;28;20208;-56
2022/11/15 09:15:16;;;;;;;9.67;8.67;;;14.70;79.80;;;17.49;56.64;100868.16;5099297;28;20196;-57
2022/11/15 09:17:44;;;;;;;9.70;8.70;;;14.70;80.50;;;17.48;56.82;100869.16;5106944;28;20218;-58
2022/11/15 09:20:11;;;;;;;10.80;8.60;;;14.70;79.60;;;17.49;56.74;100862.81;5085073;28;20209;-57
2022/11/15 09:22:40;;;;;;;9.53;8.20;;;14.70;79.60;;;17.45;56.58;100858.94;5088692;28;20209;-60
2022/11/15 09:25:08;;;;;;;8.97;8.07;;;14.70;79.60;;;17.48;56.63;100855.03;5087956;28;20198;-57
2022/11/15 09:27:37;;;;;;;9.20;8.23;;;14.70;79.60;;;17.50;56.77;100853.78;5089852;28;20185;-56
2022/11/15 09:30:06;;;;;;;10.37;8.17;;;14.70;79.60;;;17.50;56.52;100863.63;5084306;28;20632;-60
2022/11/15 09:32:33;;;;;;;9.43;8.30;;;14.80;79.70;;;17.51;56.61;100860.78;5086773;28;20275;-57
2022/11/15 09:35:06;;;;;;;10.37;9.27;;;14.70;79.60;;;17.50;56.75;100864.44;5087148;28;20189;-57
2022/11/15 09:37:33;;;;;;;9.87;8.87;;;14.70;79.50;;;17.44;56.80;100853.84;5091151;28;20262;-59
2022/11/15 09:40:02;;;;;;;9.87;8.60;;;14.70;80.30;;;17.43;57.02;100858.34;5087084;28;20203;-60
2022/11/15 09:42:52;;;;;;;11.33;8.03;;;14.70;79.60;;;17.39;57.16;100856.34;5087575;28;20296;-60
2022/11/15 09:45:28;;;;;;;10.07;8.30;;;14.70;79.60;;;17.44;56.93;100857.34;5087853;28;20626;-61
2022/11/15 09:48:39;;;;;;;10.17;7.57;;;14.80;79.80;;;17.43;57.10;100846.88;5088606;28;20227;-57
2022/11/15 09:51:17;;;;;;;10.20;7.40;;;14.70;79.80;;;17.50;56.98;100852.97;5085806;28;20225;-59
2022/11/15 09:53:56;;;;;;;8.77;7.87;;;14.80;79.80;;;17.56;57.06;100847.66;5109232;28;20636;-59
2022/11/15 09:56:45;;;;;;;8.73;7.50;;;14.80;79.70;;;17.58;56.74;100840.25;5103680;28;20266;-58
2022/11/15 09:59:40;;;;;;;8.67;7.80;;;14.80;79.50;;;17.67;56.69;100832.81;5115169;28;20192;-57
2022/11/15 10:02:31;;;;;;;7.97;6.93;;;14.90;79.60;;;17.72;56.47;100834.81;5111563;28;20223;-58
2022/11/15 10:05:00;;;;;;;10.03;7.47;;;15.00;79.40;;;17.79;56.49;100846.22;5105592;28;20192;-59
2022/11/15 10:07:40;;;;;;;7.93;6.90;;;15.00;79.20;;;17.82;56.35;100848.44;5115934;28;20195;-58
2022/11/15 10:10:24;;;;;;;7.60;6.43;;;15.10;79.30;;;17.91;56.38;100845.28;5094374;28;20203;-57
2022/11/15 10:12:53;;;;;;;8.03;7.23;;;15.10;79.40;;;18.03;55.90;100832.03;5090165;28;20261;-58
2022/11/15 10:15:23;;;;;;;9.40;7.10;;;15.20;79.00;;;18.16;55.82;100837.25;5105487;28;20195;-58
2022/11/15 10:18:18;;;;;;;8.43;6.47;;;15.30;79.00;;;18.25;55.54;100826.06;5112858;28;20238;-57
2022/11/15 10:20:49;;;;;;;9.33;6.97;;;15.40;78.70;;;18.33;55.35;100829.47;5078363;28;20213;-59
2022/11/15 10:23:21;;;;;;;7.00;6.33;;;15.40;78.10;;;18.36;54.95;100829.84;5074108;28;20243;-59
2022/11/15 10:25:52;;;;;;;8.10;7.10;;;15.50;78.10;;;18.34;55.03;100829.25;5074312;28;20190;-57
2022/11/15 10:28:27;;;;;;;7.37;6.50;;;15.50;77.70;;;18.28;55.05;100825.59;5074043;28;20193;-60
2022/11/15 10:30:57;;;;;;;7.57;6.10;;;15.60;77.60;;;18.30;55.16;100821.91;5073820;28;20203;-58